Flight Track Log - Related Links

Times and Time Zones

All times are in EDT time to prevent confusion due to time zone crossing. See the SWA2279 flight status page for this flight to view local times or setup timezone preferences in your user account.

Time Position Orientation Groundspeed Altitude Reporting Facility
EDT Latitude Longitude Course Direction KTS MPH feet Rate Location/Type
Sat 06:14:09 PM 39.1667 -76.7333 142° Southeast 189 217 1,800  Level Potomac TRACON
Sat 06:15:48 PM 39.1147 -76.6803 142° Southeast 224 258 5,100 2,522 Climbing Washington Center
Sat 06:16:46 PM 39.1261 -76.5789 82° East 224 258 8,400 3,025 Climbing Washington Center
Sat 06:17:47 PM 39.1333 -76.4639 85° East 259 298 11,100 2,924 Climbing Washington Center
Sat 06:18:45 PM 39.1425 -76.3303 85° East 317 365 14,200 3,176 Climbing Washington Center
Sat 06:19:46 PM 39.1578 -76.1939 82° East 353 406 17,400 3,124 Climbing Washington Center
Sat 06:20:46 PM 39.2292 -76.0631 55° Northeast 403 464 20,500 2,678 Climbing Washington Center
Sat 06:21:47 PM 39.2964 -75.9403 55° Northeast 405 466 22,800 2,017 Climbing Washington Center
Sat 06:22:45 PM 39.3675 -75.8117 54° Northeast 418 481 24,500 1,664 Climbing Washington Center
Sat 06:23:46 PM 39.4386 -75.6722 57° Northeast 440 506 26,100 1,623 Climbing Washington Center
Sat 06:24:47 PM 39.5156 -75.5325 54° Northeast 459 528 27,800 1,613 Climbing Washington Center
Sat 06:25:45 PM 39.6258 -75.4136 40° Northeast 486 559 29,300 1,627 Climbing Washington Center
Sat 06:26:45 PM 39.7486 -75.3217 30° Northeast 500 575 31,000 1,585 Climbing Washington Center
Sat 06:27:31 PM 39.8172 -75.2681 31° Northeast 505 581 32,100 1,514 Climbing New York Center
Sat 06:28:32 PM 39.9358 -75.1675 33° Northeast 530 610 33,700 1,475 Climbing New York Center
Sat 06:29:29 PM 40.0753 -75.0569 31° Northeast 530 610 35,000 661 Climbing New York Center
Sat 06:30:30 PM 40.2000 -74.9531 32° Northeast 530 610 35,000  Level New York Center
Sat 06:31:30 PM 40.3275 -74.8764 25° Northeast 519 597 35,000  Level New York Center
Sat 06:32:31 PM 40.4631 -74.8164 19° North 506 582 35,000  Level New York Center
Sat 06:33:29 PM 40.5961 -74.7614 17° North 501 577 35,000  Level New York Center
Sat 06:35:35 PM 40.8931 -74.6311 18° North 509 586 35,000  Level Boston Center
Sat 06:36:35 PM 41.0131 -74.5803 18° North 509 586 35,000  Level Boston Center
Sat 06:37:35 PM 41.1475 -74.5186 19° North 509 586 35,000  Level Boston Center
Sat 06:38:35 PM 41.2964 -74.4597 17° North 509 586 35,000  Level Boston Center
Sat 06:39:35 PM 41.4036 -74.4133 18° North 503 579 35,000 -50 Level Boston Center
Sat 06:40:35 PM 41.5653 -74.3406 19° North 504 580 34,900 -550 Descending Boston Center
Sat 06:41:35 PM 41.6978 -74.2806 19° North 504 580 33,900 -950 Descending Boston Center
Sat 06:42:35 PM 41.8194 -74.2314 17° North 480 552 33,000 -900 Descending Boston Center
Sat 06:43:35 PM 41.9453 -74.1733 19° North 468 539 32,100 -1,000 Descending Boston Center
Sat 06:44:35 PM 42.0711 -74.1153 19° North 468 539 31,000 -1,000 Descending Boston Center
Sat 06:45:35 PM 42.1850 -74.0317 29° Northeast 468 539 30,100 -950 Descending Boston Center
Sat 06:46:35 PM 42.2886 -73.9136 40° Northeast 469 540 29,100 -950 Descending Boston Center
Sat 06:47:35 PM 42.3881 -73.7950 41° Northeast 474 545 28,200 -950 Descending Boston Center
Sat 06:48:35 PM 42.4400 -73.6244 68° East 465 535 27,200 -1,000 Descending Boston Center
Sat 06:49:35 PM 42.4856 -73.4564 70° East 465 535 26,200 -1,050 Descending Boston Center
Sat 06:50:35 PM 42.5328 -73.2656 71° East 509 586 25,100 -1,100 Descending Boston Center
Sat 06:51:35 PM 42.5797 -73.0997 69° East 490 564 24,000 -1,350 Descending Boston Center
Sat 06:52:35 PM 42.6222 -72.9394 70° East 470 541 22,400 -1,600 Descending Boston Center
Sat 06:53:35 PM 42.6644 -72.7817 70° East 457 526 20,800 -1,800 Descending Boston Center
Sat 06:54:35 PM 42.6961 -72.6322 74° East 431 496 18,800 -2,550 Descending Boston Center
Sat 06:55:35 PM 42.7214 -72.4825 77° East 408 470 15,700 -2,650 Descending Boston Center
Sat 06:56:35 PM 42.7483 -72.3383 76° East 403 464 13,500 -2,300 Descending Boston Center
Sat 06:57:35 PM 42.7733 -72.1969 76° East 391 450 11,100 -1,750 Descending Boston Center
Sat 06:58:35 PM 42.7978 -72.0608 76° East 373 429 10,000 -950 Descending Boston Center
Sat 06:59:35 PM 42.8161 -71.9419 78° East 342 394 9,200 -1,150 Descending Boston Center
Sat 07:00:35 PM 42.8092 -71.8231 95° East 309 356 7,700 -1,283 Descending Boston Center
Sat 07:02:28 PM 42.8000 -71.6167 93° East 257 296 5,500 -1,167 Descending KA90
Sat 07:03:35 PM 42.7906 -71.5178 97° East 259 298 4,200 -1,134 Descending Boston Center
Sat 07:04:35 PM 42.7919 -71.4300 89° East 244 281 3,100 -950 Descending Boston Center
Sat 07:05:35 PM 42.8331 -71.3842 39° Northeast 194 223 2,300 -900 Descending Boston Center
Sat 07:06:35 PM 42.8728 -71.3975 346° North 139 160 1,300 -800 Descending Boston Center
Sat 07:07:35 PM 42.9044 -71.4197 333° Northwest 127 146 700 -500 Descending Boston Center
Sat 07:08:35 PM 42.9336 -71.4333 341° North 127 146 300 4,150 Descending Boston Center
Sat 07:09:35 PM 42.9650 -71.4556 333° Northwest 127 146 9,000 4,350 Climbing Boston Center
Sat 07:10:35 PM 42.9964 -71.4750 336° Northwest 127 146 9,000  Level Boston Center
Sat 07:12:00 PM 42.9328 -71.4358 160° South  Level Estimated
Sat 07:19:00 PM 42.9328 -71.4358 160° South  Level Estimated
Sat 07:20:00 PM 42.9328 -71.4358 160° South  Level Estimated
Sat 07:21:00 PM 42.9328 -71.4358 160° South  Level Estimated
Sat 07:22:00 PM 42.9328 -71.4358 160° South  Level Estimated
Sat 07:23:00 PM 42.9328 -71.4358 160° South  Level Estimated
Sat 07:24:00 PM 42.9328 -71.4358 160° South  Level Estimated

Login

Don't have an account? Register now (free) for customized features, flight alerts, and more!